createdAt,value
2018-07-30T00:00:47.850Z,99.90
2018-07-30T00:03:15.993Z,99.90
2018-07-30T00:08:12.852Z,99.90
2018-07-30T00:10:49.683Z,99.90
2018-07-30T00:13:17.826Z,99.90
2018-07-30T00:15:45.672Z,99.90
2018-07-30T00:18:13.608Z,99.90
2018-07-30T00:20:41.864Z,99.90
2018-07-30T00:23:09.605Z,99.90
2018-07-30T00:25:37.348Z,99.90
2018-07-30T00:28:12.414Z,99.90
2018-07-30T00:30:40.408Z,99.90
2018-07-30T00:33:08.164Z,99.90
2018-07-30T00:35:35.997Z,99.90
2018-07-30T00:38:03.799Z,99.90
2018-07-30T00:40:31.561Z,99.90
2018-07-30T00:42:59.369Z,99.90
2018-07-30T00:45:27.241Z,99.90
2018-07-30T00:47:55.001Z,99.90
2018-07-30T00:50:22.765Z,99.90
2018-07-30T00:52:50.715Z,99.90
2018-07-30T00:55:18.411Z,99.90
2018-07-30T00:57:46.539Z,99.90
2018-07-30T01:00:30.999Z,99.90
2018-07-30T01:02:59.017Z,99.90
2018-07-30T01:05:27.031Z,99.90
2018-07-30T01:07:54.879Z,99.90
2018-07-30T01:10:22.733Z,99.90
2018-07-30T01:12:50.587Z,99.90
2018-07-30T01:15:18.950Z,99.90
2018-07-30T01:17:46.910Z,99.90
2018-07-30T01:20:14.721Z,99.90
2018-07-30T01:22:42.569Z,99.90
2018-07-30T01:25:10.506Z,99.90
2018-07-30T01:30:06.899Z,99.90
2018-07-30T01:32:40.407Z,99.90
2018-07-30T01:35:17.164Z,99.90
2018-07-30T01:37:55.601Z,99.90
2018-07-30T01:40:25.371Z,99.90
2018-07-30T01:42:53.231Z,99.90
2018-07-30T01:45:21.147Z,99.90
2018-07-30T01:47:48.854Z,99.90
2018-07-30T01:50:16.678Z,99.90
2018-07-30T01:52:45.051Z,99.90
2018-07-30T01:55:12.858Z,99.90
2018-07-30T01:57:40.600Z,99.90
2018-07-30T02:00:08.837Z,99.90
2018-07-30T02:02:41.223Z,99.90
2018-07-30T02:05:09.238Z,99.90
2018-07-30T02:07:37.783Z,99.90
2018-07-30T02:10:06.963Z,99.90
2018-07-30T02:12:34.722Z,99.90
2018-07-30T02:15:02.756Z,99.90
2018-07-30T02:17:30.496Z,99.90
2018-07-30T02:19:58.628Z,99.90
2018-07-30T02:22:26.656Z,99.90
2018-07-30T02:24:54.425Z,99.90
2018-07-30T02:27:22.142Z,99.90
2018-07-30T02:29:49.868Z,99.90
2018-07-30T02:32:17.719Z,99.90
2018-07-30T02:34:45.700Z,99.90
2018-07-30T02:37:14.034Z,99.90
2018-07-30T02:39:41.694Z,99.90
2018-07-30T02:42:09.631Z,99.90
2018-07-30T02:44:37.540Z,99.90
2018-07-30T02:47:05.354Z,99.90
2018-07-30T02:49:33.315Z,99.90
2018-07-30T02:52:01.341Z,99.90
2018-07-30T02:54:29.372Z,99.90
2018-07-30T02:56:57.076Z,99.90
2018-07-30T02:59:24.844Z,99.90
2018-07-30T03:01:52.682Z,99.90
2018-07-30T03:04:20.779Z,99.90
2018-07-30T03:06:48.679Z,99.90
2018-07-30T03:11:44.277Z,99.90
2018-07-30T03:14:11.965Z,99.90
2018-07-30T03:16:39.814Z,99.90
2018-07-30T03:19:07.638Z,99.90
2018-07-30T03:21:35.392Z,99.90
2018-07-30T03:24:03.134Z,99.90
2018-07-30T03:26:30.862Z,99.90
2018-07-30T03:28:58.665Z,99.90
2018-07-30T03:34:04.449Z,99.90
2018-07-30T03:36:40.212Z,99.90
2018-07-30T03:39:15.944Z,99.90
2018-07-30T03:41:54.591Z,99.90
2018-07-30T03:44:22.798Z,99.90
2018-07-30T03:46:50.753Z,99.90
2018-07-30T03:49:18.789Z,99.90
2018-07-30T03:51:46.803Z,99.90
2018-07-30T03:54:14.623Z,99.90
2018-07-30T03:56:42.428Z,99.90
2018-07-30T03:59:10.228Z,99.90
2018-07-30T04:01:37.895Z,99.90
2018-07-30T04:04:06.191Z,99.90
2018-07-30T04:06:34.576Z,99.90
2018-07-30T04:09:02.293Z,99.90
2018-07-30T04:11:31.193Z,99.90
2018-07-30T04:13:58.850Z,99.90
2018-07-30T04:16:26.635Z,99.90
2018-07-30T04:18:54.254Z,99.90
2018-07-30T04:21:22.206Z,99.90
2018-07-30T04:23:49.912Z,99.90
2018-07-30T04:26:17.904Z,99.90
2018-07-30T04:28:45.867Z,99.90
2018-07-30T04:31:13.733Z,99.90
2018-07-30T04:33:41.430Z,99.90
2018-07-30T04:36:09.527Z,99.90
2018-07-30T04:38:37.400Z,99.90
2018-07-30T04:41:05.483Z,99.90
2018-07-30T04:43:33.180Z,99.90
2018-07-30T04:46:01.067Z,99.90
2018-07-30T04:50:57.188Z,99.90
2018-07-30T04:53:25.036Z,99.90
2018-07-30T04:55:52.773Z,99.90
2018-07-30T04:58:20.580Z,99.90
2018-07-30T05:00:48.341Z,99.90
2018-07-30T05:03:16.112Z,99.90
2018-07-30T05:05:43.971Z,99.90
2018-07-30T05:08:11.665Z,99.90
2018-07-30T05:10:39.575Z,99.90
2018-07-30T05:13:08.036Z,99.90
2018-07-30T05:15:35.767Z,99.90
2018-07-30T05:18:03.594Z,99.90
2018-07-30T05:20:31.453Z,99.90
2018-07-30T05:22:59.290Z,99.30
2018-07-30T05:25:27.206Z,99.20
2018-07-30T05:27:55.431Z,99.60
2018-07-30T05:30:23.196Z,99.00
2018-07-30T05:32:50.922Z,98.10
2018-07-30T05:35:19.119Z,94.60
2018-07-30T05:37:46.927Z,94.10
2018-07-30T05:40:14.929Z,93.40
2018-07-30T05:42:42.919Z,91.70
2018-07-30T05:45:11.286Z,90.20
2018-07-30T05:47:39.219Z,87.50
2018-07-30T05:52:34.840Z,84.30
2018-07-30T05:55:02.816Z,84.10
2018-07-30T05:57:30.516Z,83.50
2018-07-30T05:59:59.412Z,81.90
2018-07-30T06:02:27.186Z,80.80
2018-07-30T06:04:55.138Z,79.10
2018-07-30T06:07:22.831Z,77.60
2018-07-30T06:09:55.279Z,75.90
2018-07-30T06:12:23.026Z,74.20
2018-07-30T06:14:51.181Z,73.20
2018-07-30T06:17:19.246Z,70.80
2018-07-30T06:19:47.149Z,69.00
2018-07-30T06:22:14.906Z,66.10
2018-07-30T06:24:42.956Z,65.70
2018-07-30T06:27:11.740Z,65.80
2018-07-30T06:29:39.691Z,62.60
2018-07-30T06:32:07.711Z,61.40
2018-07-30T06:34:35.779Z,62.00
2018-07-30T06:37:03.714Z,59.20
2018-07-30T06:39:32.491Z,57.20
2018-07-30T06:42:00.391Z,55.70
2018-07-30T06:44:28.412Z,55.40
2018-07-30T06:46:57.187Z,53.30
2018-07-30T06:49:25.486Z,51.50
2018-07-30T06:51:53.398Z,51.50
2018-07-30T06:54:21.377Z,52.90
2018-07-30T06:56:49.154Z,53.20
2018-07-30T06:59:19.334Z,53.50
2018-07-30T07:01:47.973Z,52.10
2018-07-30T07:04:17.990Z,51.80
2018-07-30T07:06:45.785Z,50.70
2018-07-30T07:09:13.640Z,51.10
2018-07-30T07:11:41.524Z,48.80
2018-07-30T07:14:09.222Z,47.70
2018-07-30T07:16:37.334Z,49.80
2018-07-30T07:19:05.254Z,50.20
2018-07-30T07:21:34.528Z,46.70
2018-07-30T07:24:02.160Z,46.70
2018-07-30T07:26:29.866Z,45.70
2018-07-30T07:29:07.258Z,45.80
2018-07-30T07:31:50.671Z,47.60
2018-07-30T07:34:23.592Z,48.60
2018-07-30T07:36:51.892Z,48.00
2018-07-30T07:39:19.666Z,46.80
2018-07-30T07:41:47.330Z,46.20
2018-07-30T07:44:15.308Z,45.20
2018-07-30T07:46:43.128Z,46.40
2018-07-30T07:49:10.791Z,45.00
2018-07-30T07:51:38.898Z,44.90
2018-07-30T07:54:06.620Z,45.00
2018-07-30T07:56:34.797Z,44.70
2018-07-30T07:59:02.484Z,45.90
2018-07-30T08:01:30.306Z,45.80
2018-07-30T08:03:57.998Z,43.60
2018-07-30T08:06:25.739Z,44.50
2018-07-30T08:08:53.588Z,43.20
2018-07-30T08:11:21.279Z,42.30
2018-07-30T08:13:49.127Z,43.00
2018-07-30T08:16:17.043Z,43.50
2018-07-30T08:18:45.210Z,46.20
2018-07-30T08:21:12.931Z,44.70
2018-07-30T08:23:40.635Z,42.50
2018-07-30T08:26:08.588Z,40.80
2018-07-30T08:28:36.519Z,39.80
2018-07-30T08:31:04.236Z,39.90
2018-07-30T08:33:32.168Z,38.10
2018-07-30T08:36:00.241Z,36.20
2018-07-30T08:38:27.963Z,38.60
2018-07-30T08:40:55.645Z,38.00
2018-07-30T08:43:23.318Z,38.70
2018-07-30T08:45:51.106Z,37.80
2018-07-30T08:48:19.072Z,39.50
2018-07-30T08:50:47.138Z,40.30
2018-07-30T08:53:14.807Z,38.20
2018-07-30T08:55:42.661Z,40.00
2018-07-30T08:58:10.788Z,37.70
2018-07-30T09:00:38.667Z,36.70
2018-07-30T09:03:06.323Z,37.30
2018-07-30T09:05:34.250Z,36.40
2018-07-30T09:08:01.966Z,38.00
2018-07-30T09:10:29.652Z,34.70
2018-07-30T09:12:57.972Z,31.60
2018-07-30T09:15:27.379Z,32.30
2018-07-30T09:17:55.309Z,32.80
2018-07-30T09:20:23.035Z,33.40
2018-07-30T09:22:51.391Z,31.60
2018-07-30T09:25:19.504Z,31.40
2018-07-30T09:27:47.134Z,31.50
2018-07-30T09:30:14.929Z,32.10
2018-07-30T09:32:42.658Z,32.20
2018-07-30T09:35:10.403Z,31.30
2018-07-30T09:37:38.237Z,31.70
2018-07-30T09:40:06.134Z,32.30
2018-07-30T09:42:34.243Z,31.40
2018-07-30T09:45:02.408Z,30.40
2018-07-30T09:47:30.103Z,33.40
2018-07-30T09:49:57.890Z,33.00
2018-07-30T09:52:25.624Z,32.30
2018-07-30T09:54:53.415Z,31.20
2018-07-30T09:57:21.130Z,32.50
2018-07-30T09:59:49.021Z,32.20
2018-07-30T10:02:17.006Z,31.60
2018-07-30T10:04:44.786Z,31.30
2018-07-30T10:07:18.046Z,30.80
2018-07-30T10:09:45.788Z,31.00
2018-07-30T10:12:17.781Z,31.70
2018-07-30T10:14:53.556Z,32.70
2018-07-30T10:17:21.314Z,32.30
2018-07-30T10:19:49.114Z,30.90
2018-07-30T10:22:16.910Z,31.40
2018-07-30T10:24:44.919Z,32.40
2018-07-30T10:27:12.770Z,32.00
2018-07-30T10:29:40.406Z,31.60
2018-07-30T10:32:14.762Z,31.10
2018-07-30T10:34:43.033Z,29.50
2018-07-30T10:37:10.638Z,30.10
2018-07-30T10:39:38.451Z,31.50
2018-07-30T10:42:06.242Z,30.50
2018-07-30T10:44:33.993Z,31.00
2018-07-30T10:47:01.747Z,30.40
2018-07-30T10:49:29.591Z,30.00
2018-07-30T10:52:00.858Z,31.50
2018-07-30T10:54:34.128Z,31.80
2018-07-30T10:57:09.470Z,32.70
2018-07-30T10:59:37.094Z,32.30
2018-07-30T11:02:04.864Z,32.90
2018-07-30T11:04:32.568Z,32.90
2018-07-30T11:07:00.338Z,34.20
2018-07-30T11:09:28.264Z,33.90
2018-07-30T11:11:55.927Z,32.20
2018-07-30T11:14:23.590Z,33.40
2018-07-30T11:16:54.302Z,32.90
2018-07-30T11:19:22.019Z,32.40
2018-07-30T11:21:49.646Z,33.10
2018-07-30T11:24:17.288Z,35.40
2018-07-30T11:26:44.911Z,35.40
2018-07-30T11:31:40.592Z,36.70
2018-07-30T11:34:08.582Z,37.00
2018-07-30T11:36:36.658Z,38.10
2018-07-30T11:39:08.498Z,39.70
2018-07-30T11:41:36.412Z,39.30
2018-07-30T11:44:04.042Z,39.20
2018-07-30T11:46:31.780Z,38.50
2018-07-30T11:48:59.457Z,39.60
2018-07-30T11:51:27.336Z,40.20
2018-07-30T11:53:55.231Z,40.40
2018-07-30T11:56:23.073Z,42.40
2018-07-30T11:58:51.139Z,39.70
2018-07-30T12:01:19.222Z,39.50
2018-07-30T12:03:46.914Z,40.30
2018-07-30T12:06:14.683Z,41.60
2018-07-30T12:08:42.321Z,42.00
2018-07-30T12:11:10.391Z,42.00
2018-07-30T12:13:38.593Z,41.80
2018-07-30T12:16:08.308Z,42.10
2018-07-30T12:18:37.279Z,43.50
2018-07-30T12:21:05.434Z,42.10
2018-07-30T12:23:33.071Z,40.90
2018-07-30T12:26:00.763Z,42.50
2018-07-30T12:28:28.426Z,41.50
2018-07-30T12:30:57.283Z,41.30
2018-07-30T12:33:25.088Z,42.00
2018-07-30T12:35:53.793Z,40.70
2018-07-30T12:38:21.663Z,44.00
2018-07-30T12:40:49.429Z,41.70
2018-07-30T12:43:17.043Z,41.90
2018-07-30T12:45:45.662Z,42.00
2018-07-30T12:48:14.152Z,42.70
2018-07-30T12:50:42.038Z,40.70
2018-07-30T12:53:09.746Z,41.50
2018-07-30T12:55:37.869Z,42.20
2018-07-30T12:58:12.285Z,42.10
2018-07-30T13:00:43.223Z,42.90
2018-07-30T13:03:11.135Z,43.90
2018-07-30T13:05:38.977Z,44.50
2018-07-30T13:08:06.760Z,43.50
2018-07-30T13:10:34.627Z,41.60
2018-07-30T13:13:02.685Z,41.70
2018-07-30T13:15:30.666Z,40.50
2018-07-30T13:17:58.363Z,40.90
2018-07-30T13:22:54.842Z,41.50
2018-07-30T13:25:24.577Z,41.60
2018-07-30T13:27:52.361Z,42.50
2018-07-30T13:30:23.180Z,42.80
2018-07-30T13:32:53.506Z,40.90
2018-07-30T13:35:22.245Z,41.80
2018-07-30T13:37:49.938Z,41.80
2018-07-30T13:40:17.869Z,40.20
2018-07-30T13:42:48.118Z,41.60
2018-07-30T13:45:16.471Z,40.60
2018-07-30T13:47:44.726Z,41.10
2018-07-30T13:50:12.519Z,41.40
2018-07-30T13:52:40.261Z,41.50
2018-07-30T13:55:08.192Z,42.10
2018-07-30T13:57:36.227Z,42.30
2018-07-30T14:00:06.319Z,43.90
2018-07-30T14:02:34.001Z,43.40
2018-07-30T14:05:01.731Z,43.70
2018-07-30T14:07:29.518Z,42.50
2018-07-30T14:09:57.588Z,43.30
2018-07-30T14:12:25.440Z,42.70
2018-07-30T14:14:53.292Z,41.80
2018-07-30T14:17:21.119Z,42.30
2018-07-30T14:19:48.787Z,42.40
2018-07-30T14:22:16.752Z,43.40
2018-07-30T14:24:44.820Z,41.50
2018-07-30T14:29:40.410Z,41.60
2018-07-30T14:32:08.214Z,42.60
2018-07-30T14:34:36.096Z,43.10
2018-07-30T14:37:03.871Z,41.50
2018-07-30T14:39:31.780Z,42.00
2018-07-30T14:42:01.543Z,41.70
2018-07-30T14:44:29.558Z,42.10
2018-07-30T14:46:57.247Z,40.90
2018-07-30T14:49:25.931Z,42.00
2018-07-30T14:51:53.932Z,41.60
2018-07-30T14:54:21.628Z,43.50
2018-07-30T14:56:49.276Z,43.00
2018-07-30T14:59:17.306Z,42.80
2018-07-30T15:01:45.149Z,42.70
2018-07-30T15:04:13.116Z,42.10
2018-07-30T15:11:40.020Z,41.90
2018-07-30T15:14:07.875Z,41.30
2018-07-30T15:16:36.215Z,41.90
2018-07-30T15:19:04.588Z,41.40
2018-07-30T15:24:06.781Z,40.80
2018-07-30T15:26:59.445Z,41.40
2018-07-30T15:29:27.190Z,42.00
2018-07-30T15:31:55.118Z,41.60
2018-07-30T15:34:22.919Z,42.00
2018-07-30T15:39:18.783Z,42.00
2018-07-30T15:41:46.953Z,42.50
2018-07-30T15:44:14.783Z,41.30
2018-07-30T15:46:42.664Z,41.10
2018-07-30T15:49:10.421Z,41.50
2018-07-30T15:54:06.202Z,42.60
2018-07-30T15:56:34.071Z,42.00
2018-07-30T15:59:02.366Z,42.00
2018-07-30T16:01:30.031Z,43.30
2018-07-30T16:03:57.871Z,42.60
2018-07-30T16:06:44.326Z,42.70
2018-07-30T16:09:21.231Z,41.60
2018-07-30T16:11:48.974Z,40.90
2018-07-30T16:14:16.723Z,40.70
2018-07-30T16:16:44.434Z,41.60
2018-07-30T16:19:12.111Z,41.50
2018-07-30T16:21:40.079Z,42.10
2018-07-30T16:24:07.978Z,42.00
2018-07-30T16:26:35.852Z,41.40
2018-07-30T16:29:03.774Z,40.00
2018-07-30T16:31:31.404Z,41.80
2018-07-30T16:33:59.479Z,41.70
2018-07-30T16:36:27.327Z,41.20
2018-07-30T16:38:55.017Z,40.60
2018-07-30T16:41:23.080Z,42.10
2018-07-30T16:46:18.575Z,41.60
2018-07-30T16:48:46.245Z,40.30
2018-07-30T16:51:23.504Z,40.70
2018-07-30T16:54:02.329Z,40.80
2018-07-30T16:56:43.531Z,42.30
2018-07-30T16:59:23.175Z,42.20
2018-07-30T17:01:56.971Z,43.10
2018-07-30T17:04:24.759Z,43.10
2018-07-30T17:06:53.054Z,44.30
2018-07-30T17:11:48.507Z,44.80
2018-07-30T17:14:16.284Z,44.10
2018-07-30T17:16:44.038Z,44.10
2018-07-30T17:19:12.170Z,44.80
2018-07-30T17:21:40.203Z,44.60
2018-07-30T17:24:09.103Z,45.60
2018-07-30T17:26:38.132Z,46.10
2018-07-30T17:29:05.896Z,46.50
2018-07-30T17:31:33.951Z,47.00
2018-07-30T17:34:01.818Z,47.10
2018-07-30T17:36:32.359Z,47.30
2018-07-30T17:39:00.269Z,47.30
2018-07-30T17:41:29.900Z,47.00
2018-07-30T17:43:57.834Z,47.50
2018-07-30T17:46:26.993Z,48.50
2018-07-30T17:48:55.052Z,48.20
2018-07-30T17:51:26.553Z,49.50
2018-07-30T17:53:55.627Z,48.30
2018-07-30T17:56:23.447Z,45.80
2018-07-30T17:58:51.280Z,46.40
2018-07-30T18:01:19.624Z,46.60
2018-07-30T18:03:47.464Z,46.70
2018-07-30T18:06:15.176Z,46.50
2018-07-30T18:08:43.944Z,46.40
2018-07-30T18:11:12.259Z,46.80
2018-07-30T18:13:40.398Z,47.40
2018-07-30T18:16:08.087Z,47.60
2018-07-30T18:18:39.234Z,47.60
2018-07-30T18:21:12.371Z,48.00
2018-07-30T18:23:45.708Z,48.20
2018-07-30T18:26:13.433Z,47.50
2018-07-30T18:28:41.531Z,49.10
2018-07-30T18:31:09.610Z,48.60
2018-07-30T18:33:37.568Z,48.90
2018-07-30T18:36:05.326Z,49.10
2018-07-30T18:38:33.233Z,49.70
2018-07-30T18:41:00.940Z,50.10
2018-07-30T18:43:28.767Z,50.40
2018-07-30T18:45:56.460Z,51.00
2018-07-30T18:48:24.171Z,51.20
2018-07-30T18:50:52.333Z,53.50
2018-07-30T18:55:48.023Z,55.10
2018-07-30T18:58:15.723Z,55.30
2018-07-30T19:03:11.174Z,55.90
2018-07-30T19:05:38.955Z,56.30
2018-07-30T19:08:07.104Z,57.00
2018-07-30T19:10:35.589Z,57.30
2018-07-30T19:13:03.201Z,58.10
2018-07-30T19:15:30.852Z,59.00
2018-07-30T19:17:59.057Z,60.20
2018-07-30T19:20:26.692Z,59.70
2018-07-30T19:22:55.848Z,60.60
2018-07-30T19:25:25.180Z,61.70
2018-07-30T19:27:52.865Z,61.70
2018-07-30T19:30:22.781Z,62.80
2018-07-30T19:32:52.375Z,62.90
2018-07-30T19:35:21.263Z,64.10
2018-07-30T19:37:48.878Z,64.40
2018-07-30T19:40:16.628Z,66.30
2018-07-30T19:42:44.375Z,66.60
2018-07-30T19:45:12.062Z,68.70
2018-07-30T19:47:40.593Z,67.80
2018-07-30T19:50:08.514Z,67.60
2018-07-30T19:52:36.951Z,69.30
2018-07-30T19:55:05.096Z,71.80
2018-07-30T19:57:32.858Z,72.40
2018-07-30T20:00:02.166Z,73.00
2018-07-30T20:02:35.241Z,73.00
2018-07-30T20:05:03.274Z,74.80
2018-07-30T20:07:31.189Z,75.00
2018-07-30T20:09:58.876Z,75.70
2018-07-30T20:12:26.538Z,76.70
2018-07-30T20:14:54.232Z,77.40
2018-07-30T20:17:21.943Z,78.80
2018-07-30T20:19:49.603Z,79.90
2018-07-30T20:22:17.382Z,80.30
2018-07-30T20:24:45.165Z,81.10
2018-07-30T20:27:12.911Z,82.70
2018-07-30T20:29:42.644Z,84.20
2018-07-30T20:32:11.802Z,83.90
2018-07-30T20:34:41.851Z,84.30
2018-07-30T20:37:09.612Z,84.20
2018-07-30T20:39:37.403Z,85.00
2018-07-30T20:42:05.458Z,84.60
2018-07-30T20:44:36.029Z,85.60
2018-07-30T20:47:06.800Z,85.40
2018-07-30T20:49:36.196Z,85.40
2018-07-30T20:55:21.674Z,84.40
2018-07-30T20:57:49.451Z,84.00
2018-07-30T21:00:17.652Z,86.50
2018-07-30T21:02:45.377Z,85.90
2018-07-30T21:05:13.217Z,87.30
2018-07-30T21:07:41.179Z,88.40
2018-07-30T21:10:09.162Z,89.10
2018-07-30T21:12:38.474Z,89.60
2018-07-30T21:15:24.464Z,90.00
2018-07-30T21:17:52.158Z,89.80
2018-07-30T21:20:19.939Z,89.80
2018-07-30T21:22:47.795Z,90.90
2018-07-30T21:25:16.730Z,91.40
2018-07-30T21:27:44.458Z,91.90
2018-07-30T21:30:12.192Z,92.50
2018-07-30T21:32:40.031Z,93.00
2018-07-30T21:35:08.946Z,93.70
2018-07-30T21:37:36.710Z,93.80
2018-07-30T21:40:04.805Z,93.90
2018-07-30T21:42:32.523Z,94.00
2018-07-30T21:45:00.311Z,94.00
2018-07-30T21:47:28.176Z,94.20
2018-07-30T21:49:56.119Z,94.60
2018-07-30T21:52:23.815Z,94.90
2018-07-30T21:54:52.160Z,95.00
2018-07-30T21:57:19.899Z,94.90
2018-07-30T21:59:47.933Z,95.10
2018-07-30T22:02:15.869Z,95.50
2018-07-30T22:04:43.569Z,95.70
2018-07-30T22:07:11.267Z,95.90
2018-07-30T22:09:39.279Z,96.70
2018-07-30T22:12:07.329Z,97.20
2018-07-30T22:14:35.494Z,97.20
2018-07-30T22:19:31.041Z,97.70
2018-07-30T22:21:58.830Z,98.20
2018-07-30T22:24:26.816Z,98.20
2018-07-30T22:26:54.729Z,98.30
2018-07-30T22:29:22.503Z,98.20
2018-07-30T22:31:50.225Z,99.00
2018-07-30T22:34:18.623Z,99.00
2018-07-30T22:36:46.447Z,99.30
2018-07-30T22:39:14.181Z,99.60
2018-07-30T22:41:43.038Z,97.70
2018-07-30T22:44:10.750Z,96.00
2018-07-30T22:46:38.532Z,96.40
2018-07-30T22:49:06.837Z,95.30
2018-07-30T22:51:34.702Z,96.20
2018-07-30T22:54:02.675Z,96.90
2018-07-30T22:56:30.481Z,97.90
2018-07-30T22:58:58.234Z,98.40
2018-07-30T23:01:26.527Z,99.50
2018-07-30T23:03:54.571Z,99.70
2018-07-30T23:06:22.355Z,99.90
2018-07-30T23:08:50.152Z,99.90
2018-07-30T23:11:18.304Z,99.90
2018-07-30T23:13:47.212Z,99.90
2018-07-30T23:16:15.047Z,99.90
2018-07-30T23:18:42.844Z,99.90
2018-07-30T23:21:10.670Z,99.90
2018-07-30T23:23:38.411Z,99.90
2018-07-30T23:26:06.166Z,99.90
2018-07-30T23:28:33.896Z,99.90
2018-07-30T23:31:01.668Z,99.90
2018-07-30T23:35:57.511Z,99.90
2018-07-30T23:38:25.546Z,99.90
2018-07-30T23:40:53.245Z,99.90
2018-07-30T23:43:21.039Z,99.90
2018-07-30T23:45:48.747Z,99.90
2018-07-30T23:48:16.664Z,99.90
2018-07-30T23:50:44.430Z,99.90
2018-07-30T23:53:12.496Z,99.90
2018-07-30T23:55:40.287Z,99.90
2018-07-30T23:58:08.105Z,99.90
